Main page
METAR-TAF:

METAR-TAF

Airports :

Perpignan, France

Perpignan–Rivesaltes Airport

latitude: 42-44N, longitude: 002-52E, elevation: 43 m

Current weather observation

The report was made 15 minutes ago, at 07:00 UTC
Wind 18 kt from the Northwest with gusts up to 32 kt
Temperature 9°C
Humidity 57%
Pressure 1023 hPa
Visibility 10 km or more
no clouds below 1500 m and no cumulonimbus

METAR: LFMP 180700Z AUTO 31018G32KT CAVOK 09/01 Q1023 NOSIG

Time: 08:15 (07:15 UTC)

Forecast

The report was made 5 hours and 15 minutes ago, at 02:00 UTC
Forecast valid from 18 at 03 UTC to 19 at 03 UTC
Wind 15 kt from the Northwest
Visibility 10 km or more
Scattered clouds at a height of 4000 ft
Temporary
from 18 at 03 UTC to 18 at 18 UTC
Wind 20 kt from the Northwest with gusts up to 30 kt

TAF: LFMP 180200Z 1803/1903 32015KT 9999 SCT040 TEMPO 1803/1818 32020G30KT

Weather observations and forecasts of more than 4000 airports (METAR and TAF reports).

The available stations are represented by yellow and red dots on the map.

Hover mouse over dot to see the name of the station.

Then click to see weather observations and forecasts.

To change the map : click on the green buttons with a black cross to zoom in, on the green button with a dash to zoom out, or on the green arrows for adjacent maps.


METAR-TAF: